RKJK/KUV METAR and TAF weather

Enter ICAO airport designator
Station Type Date Time Source
RKJK METAR 2020/07/04 09:56 UTC NOAA

RKJK 040956Z AUTO 23003KT 10SM OVC043 22/21 A2972 RMK AO2 SLP068 T02200211 $


Station Type Date Time Source
RKJK Decoded METAR 2020/07/04 09:56 UTC NOAA

Kunsan Ab, Korea, South (RKJK) 35-55N 126-37E 10M
Jul 04, 2020 - 05:56 AM EDT / 2020.07.04 0956 UTC
Wind: from the SW (230 degrees) at 3 MPH (3 KT):0
Visibility: 10 mile(s):0
Sky conditions: overcast
Temperature: 71.6 F (22.0 C)
Dew Point: 70.0 F (21.1 C)
Relative Humidity: 94%
Pressure (altimeter): 29.72 in. Hg (1006 hPa)
ob: RKJK 040956Z AUTO 23003KT 10SM OVC043 22/21 A2972 RMK AO2 SLP068 T02200211
cycle: 10

Station Type Date Time Source
RKJK TAF 2020/07/04 07:12 UTC NOAA

TAF TAF RKJK 040700Z 0407/0513 VRB06KT 8000 BR SCT015 OVC040 QNH2971INS
BECMG 0408/0409 VRB06KT 9000 BR BKN025 QNH2970INS
BECMG 0409/0410 32009KT 9999 NSW SCT025 QNH2902INS
BECMG 0411/0412 33006KT 9000 BR SCT015 QNH2971INS
BECMG 0503/0504 VRB06KT 8000 BR FEW025 QNH2965INS TX24/0504Z TN19/0418Z

Example: see airport list